createdAt,value
2023-01-22T06:43:46.563Z,32.97
2023-01-22T06:45:53.537Z,29.33
2023-01-22T06:46:55.341Z,26.90
2023-01-22T06:47:57.067Z,26.52
2023-01-22T06:49:01.574Z,22.98
2023-01-22T06:50:04.453Z,21.92
2023-01-22T06:51:06.293Z,20.63
2023-01-22T06:52:08.206Z,19.75
2023-01-22T06:53:10.005Z,19.30
2023-01-22T06:54:12.844Z,18.08
2023-01-22T06:55:14.780Z,18.00
2023-01-22T06:56:16.500Z,17.45
2023-01-22T06:57:18.251Z,17.77
2023-01-22T06:58:19.989Z,17.80
2023-01-22T06:59:22.170Z,16.50
2023-01-22T07:00:24.387Z,17.10
2023-01-22T07:01:26.222Z,16.42
2023-01-22T07:02:27.998Z,16.73
2023-01-22T07:03:30.256Z,15.68
2023-01-22T07:04:32.379Z,17.65
2023-01-22T07:05:34.997Z,16.02
2023-01-22T09:26:25.830Z,6.70
2023-01-22T09:27:27.617Z,6.80
2023-01-22T09:28:29.522Z,6.60
2023-01-22T09:29:31.516Z,7.20
2023-01-22T09:30:33.472Z,6.30
2023-01-22T09:31:36.557Z,6.55
2023-01-22T09:32:38.560Z,6.13
2023-01-22T09:33:40.589Z,6.45
2023-01-22T09:34:42.420Z,6.90
2023-01-22T09:35:44.276Z,6.40
2023-01-22T09:36:46.560Z,6.65
2023-01-22T09:37:48.353Z,6.18
2023-01-22T09:38:53.166Z,5.78
2023-01-22T09:39:55.092Z,6.50
2023-01-22T09:40:58.910Z,6.53
2023-01-22T09:42:03.519Z,6.32
2023-01-22T09:43:23.885Z,6.82
2023-01-22T09:44:43.447Z,6.43
2023-01-22T09:45:46.975Z,6.07
2023-01-22T09:46:58.531Z,6.60
2023-01-22T09:48:06.798Z,6.68
2023-01-22T09:49:21.929Z,6.20
2023-01-22T09:50:30.450Z,6.35
2023-01-22T09:51:33.492Z,6.80
2023-01-22T09:52:39.425Z,6.75
2023-01-22T09:53:43.502Z,7.38
2023-01-22T09:54:47.299Z,7.10
2023-01-22T09:55:54.611Z,7.10
2023-01-22T09:56:59.598Z,7.93
2023-01-22T09:58:05.647Z,7.32
2023-01-22T09:59:19.579Z,7.32
2023-01-22T10:00:41.082Z,7.40
2023-01-22T10:02:55.882Z,8.95
2023-01-22T10:04:06.438Z,8.27
2023-01-22T10:05:28.900Z,7.05
2023-01-22T10:06:38.309Z,6.72
2023-01-22T10:07:45.227Z,6.57
2023-01-22T10:08:49.982Z,7.10
2023-01-22T10:09:55.740Z,7.32
2023-01-22T10:11:01.017Z,6.70
2023-01-22T10:15:23.667Z,6.00
2023-01-22T10:16:30.356Z,6.80
